X  Fermer Données météorologiques d'aviation de Metar     LIPX Verona-Villafranca Valerio Catullo Airport
Température
14°C Température
11°C Point de rosée
82% Humidité



Vent
8 KM/H
5 MPH
2 M/S
4 KTS



220°
SO
Conditions actuelles

Clair Clair
Pression 1005.08 (hPa) - 29.68 (inHg)
Visibilité 6 (mile) - 9.7 (km)
Aéroport
Code de l'aéroport LIPX

Emplacement: Verona-Villafranca Valerio Catullo Airport
Distance: 0 (km)

Metar:
LIPX 152250Z 22004KT CAVOK 14/11 Q1005

Temps: 15-04-2024 22:50 CEST